Time;durP1;ratioP1;P1;durP2;ratioP2;P2;SDS_P1;SDS_P2;PMS_P1;PMS_P2;Temp;Humidity;BMP_temperature;BMP_pressure;BME280_temperature;BME280_humidity;BME280_pressure;Samples;Min_cycle;Max_cycle;Signal;HPM_P1;HPM_P2
2023/05/21 00:00:10;;;;;;;8.30;5.63;;;16.30;99.90;;;;;;4175880;28;20033;-62
2023/05/21 00:02:14;;;;;;;7.03;5.05;;;16.20;99.90;;;;;;4175866;28;20029;-61
2023/05/21 00:04:14;;;;;;;10.48;5.18;;;16.20;99.90;;;;;;4175335;28;20028;-61
2023/05/21 00:06:15;;;;;;;8.15;5.50;;;16.20;99.90;;;;;;4170212;28;20461;-61
2023/05/21 00:08:15;;;;;;;8.93;5.47;;;16.20;99.90;;;;;;4175817;28;20045;-61
2023/05/21 00:10:16;;;;;;;7.97;5.40;;;16.20;99.90;;;;;;4174146;28;20044;-61
2023/05/21 00:12:16;;;;;;;9.30;5.50;;;16.20;99.90;;;;;;4174551;28;20029;-61
2023/05/21 00:14:17;;;;;;;7.55;5.05;;;16.20;99.90;;;;;;4172280;28;20077;-61
2023/05/21 00:16:18;;;;;;;7.45;5.35;;;16.20;99.90;;;;;;4173076;28;20044;-61
2023/05/21 00:18:18;;;;;;;7.60;5.35;;;16.20;99.90;;;;;;4176003;28;20122;-61
2023/05/21 00:20:19;;;;;;;7.47;5.50;;;16.20;99.90;;;;;;4174305;28;20166;-61
2023/05/21 00:22:19;;;;;;;8.10;5.10;;;16.20;99.90;;;;;;4175623;28;20037;-61
2023/05/21 00:24:20;;;;;;;9.52;5.03;;;16.20;99.90;;;;;;4173014;28;20028;-61
2023/05/21 00:26:22;;;;;;;6.93;5.45;;;16.20;99.90;;;;;;4172756;28;20158;-61
2023/05/21 00:28:23;;;;;;;6.60;5.18;;;16.20;99.90;;;;;;4172601;28;20048;-61
2023/05/21 00:30:24;;;;;;;8.45;5.30;;;16.20;99.90;;;;;;4175073;28;20098;-61
2023/05/21 00:32:24;;;;;;;6.68;5.00;;;16.20;99.90;;;;;;4175738;28;20452;-61
2023/05/21 00:34:25;;;;;;;6.82;5.03;;;16.20;99.90;;;;;;4173211;28;20112;-61
2023/05/21 00:36:26;;;;;;;7.15;5.50;;;16.20;99.90;;;;;;4174400;28;20094;-62
2023/05/21 00:38:26;;;;;;;7.57;5.50;;;16.20;99.90;;;;;;4176473;28;20484;-61
2023/05/21 00:40:27;;;;;;;7.38;4.75;;;16.20;99.90;;;;;;4172804;28;20037;-61
2023/05/21 00:42:29;;;;;;;8.07;5.45;;;16.20;99.90;;;;;;4174954;28;20037;-61
2023/05/21 00:44:33;;;;;;;5.40;4.35;;;16.20;99.90;;;;;;4176606;28;20032;-61
2023/05/21 00:46:34;;;;;;;6.85;4.53;;;16.20;99.90;;;;;;4173966;28;20052;-61
2023/05/21 00:48:35;;;;;;;5.40;4.53;;;16.20;99.90;;;;;;4174735;28;20067;-61
2023/05/21 00:50:38;;;;;;;7.63;5.25;;;16.20;99.90;;;;;;4171234;28;20032;-61
2023/05/21 00:52:40;;;;;;;5.97;4.90;;;16.20;99.90;;;;;;4175017;28;20503;-61
2023/05/21 00:54:41;;;;;;;5.95;4.82;;;16.20;99.90;;;;;;4176056;28;20041;-61
2023/05/21 00:56:43;;;;;;;5.88;4.57;;;16.20;99.90;;;;;;4171678;28;20369;-61
2023/05/21 00:58:43;;;;;;;8.48;5.10;;;16.20;99.90;;;;;;4174952;28;20160;-61
2023/05/21 01:00:45;;;;;;;8.88;5.13;;;16.20;99.90;;;;;;4175873;28;20057;-61
2023/05/21 01:02:46;;;;;;;8.07;5.25;;;16.20;99.90;;;;;;4174271;28;20036;-61
2023/05/21 01:04:46;;;;;;;7.13;5.32;;;16.20;99.90;;;;;;4171333;28;20400;-61
2023/05/21 01:06:47;;;;;;;8.85;4.95;;;16.20;99.90;;;;;;4172795;28;20179;-61
2023/05/21 01:08:49;;;;;;;6.80;4.78;;;16.20;99.90;;;;;;4172211;28;20467;-61
2023/05/21 01:10:51;;;;;;;6.88;5.22;;;16.20;99.90;;;;;;4168580;28;20435;-61
2023/05/21 01:12:53;;;;;;;6.97;5.00;;;16.20;99.90;;;;;;4172543;28;20036;-61
2023/05/21 01:14:55;;;;;;;6.70;5.00;;;16.20;99.90;;;;;;4174030;28;20037;-61
2023/05/21 01:16:56;;;;;;;8.02;4.63;;;16.10;99.90;;;;;;4171013;28;20037;-61
2023/05/21 01:18:58;;;;;;;7.03;4.80;;;16.10;99.90;;;;;;4173721;28;20385;-63
2023/05/21 01:20:59;;;;;;;6.50;4.25;;;16.10;99.90;;;;;;4173626;28;20056;-61
2023/05/21 01:23:00;;;;;;;5.10;4.28;;;16.10;99.90;;;;;;4175407;28;20025;-61
2023/05/21 01:25:02;;;;;;;6.38;4.63;;;16.10;99.90;;;;;;4174098;28;20046;-61
2023/05/21 01:27:06;;;;;;;5.07;3.83;;;16.10;99.90;;;;;;4171948;28;20541;-62
2023/05/21 01:29:11;;;;;;;4.57;3.60;;;16.00;99.90;;;;;;4174556;28;20503;-61
2023/05/21 01:31:27;;;;;;;5.38;4.40;;;16.00;99.90;;;;;;4173385;28;20029;-61
2023/05/21 01:33:47;;;;;;;6.43;4.53;;;16.00;99.90;;;;;;4173741;28;20041;-61
2023/05/21 01:36:23;;;;;;;5.85;4.03;;;16.00;99.90;;;;;;4174493;28;20442;-61
2023/05/21 01:38:35;;;;;;;5.70;4.18;;;16.00;99.90;;;;;;4173683;28;20041;-61
2023/05/21 01:41:02;;;;;;;5.18;4.00;;;16.00;99.90;;;;;;4172575;28;20037;-61
2023/05/21 01:43:05;;;;;;;6.45;4.30;;;16.00;99.90;;;;;;4172751;28;20071;-63
2023/05/21 01:45:07;;;;;;;5.20;4.00;;;15.90;99.90;;;;;;4175245;28;20056;-64
2023/05/21 01:47:09;;;;;;;4.68;3.78;;;15.90;99.90;;;;;;4176280;28;20033;-61
2023/05/21 01:49:11;;;;;;;5.50;4.03;;;15.90;99.90;;;;;;4175188;28;20486;-61
2023/05/21 01:51:12;;;;;;;4.93;3.75;;;15.90;99.90;;;;;;4172502;28;20060;-61
2023/05/21 01:53:14;;;;;;;5.70;4.13;;;15.90;99.90;;;;;;4175006;28;20043;-61
2023/05/21 01:55:15;;;;;;;4.85;3.97;;;15.90;99.90;;;;;;4169533;28;20024;-61
2023/05/21 01:57:17;;;;;;;6.80;4.03;;;16.00;99.90;;;;;;4174545;28;20033;-61
2023/05/21 01:59:19;;;;;;;5.53;4.07;;;15.90;99.90;;;;;;4174192;28;20365;-61
2023/05/21 02:01:19;;;;;;;6.03;4.25;;;15.90;99.90;;;;;;4170152;28;20033;-61
2023/05/21 02:03:20;;;;;;;6.38;4.30;;;15.90;99.90;;;;;;4171962;28;20435;-61
2023/05/21 02:05:21;;;;;;;7.72;3.78;;;15.90;99.90;;;;;;4167696;28;20025;-60
2023/05/21 02:07:22;;;;;;;5.78;3.90;;;15.90;99.90;;;;;;4171398;28;20044;-61
2023/05/21 02:09:22;;;;;;;6.45;4.47;;;15.90;99.90;;;;;;4172841;28;20090;-61
2023/05/21 02:11:23;;;;;;;6.40;4.40;;;15.90;99.90;;;;;;4168313;28;20029;-61
2023/05/21 02:13:23;;;;;;;6.07;4.15;;;15.90;99.90;;;;;;4173046;28;20037;-60
2023/05/21 02:15:24;;;;;;;4.80;3.78;;;15.90;99.90;;;;;;4175425;28;20037;-61
2023/05/21 02:17:25;;;;;;;5.95;4.22;;;15.90;99.90;;;;;;4173244;28;20029;-61
2023/05/21 02:19:26;;;;;;;5.18;4.07;;;15.90;99.90;;;;;;4174352;28;21043;-61
2023/05/21 02:21:26;;;;;;;7.25;4.80;;;15.90;99.90;;;;;;4170434;28;20033;-60
2023/05/21 02:23:27;;;;;;;6.47;4.00;;;15.90;99.90;;;;;;4174963;28;20037;-60
2023/05/21 02:25:27;;;;;;;6.07;3.65;;;15.90;99.90;;;;;;4172821;28;20037;-61
2023/05/21 02:27:30;;;;;;;6.45;4.15;;;15.80;99.90;;;;;;4173169;28;20071;-60
2023/05/21 02:29:31;;;;;;;5.15;3.97;;;15.80;99.90;;;;;;4177189;28;20023;-61
2023/05/21 02:31:32;;;;;;;6.38;4.38;;;15.80;99.90;;;;;;4172057;28;20029;-61
2023/05/21 02:33:32;;;;;;;5.05;3.75;;;15.80;99.90;;;;;;4175909;28;20376;-61
2023/05/21 02:35:35;;;;;;;5.20;3.88;;;15.80;99.90;;;;;;4171905;28;20029;-60
2023/05/21 02:37:36;;;;;;;5.35;3.88;;;15.80;99.90;;;;;;4176293;28;20040;-61
2023/05/21 02:39:36;;;;;;;5.35;3.88;;;15.70;99.90;;;;;;4173144;28;20098;-61
2023/05/21 02:41:37;;;;;;;6.78;4.20;;;15.70;99.90;;;;;;4176193;28;20489;-61
2023/05/21 02:43:38;;;;;;;6.50;4.30;;;15.70;99.90;;;;;;4176278;28;20377;-61
2023/05/21 02:45:38;;;;;;;5.45;4.28;;;15.70;99.90;;;;;;4174572;28;20091;-61
2023/05/21 02:47:39;;;;;;;5.55;4.20;;;15.60;99.90;;;;;;4177119;28;20041;-61
2023/05/21 02:49:40;;;;;;;5.80;4.55;;;15.60;99.90;;;;;;4176992;28;20096;-61
2023/05/21 02:51:40;;;;;;;6.85;4.20;;;15.50;99.90;;;;;;4173545;28;20025;-61
2023/05/21 02:53:41;;;;;;;4.43;3.50;;;15.60;99.90;;;;;;4177471;28;20021;-61
2023/05/21 02:55:41;;;;;;;5.45;4.35;;;15.60;99.90;;;;;;4172285;28;20029;-61
2023/05/21 02:57:42;;;;;;;9.52;4.30;;;15.60;99.90;;;;;;4172933;28;20431;-60
2023/05/21 02:59:44;;;;;;;5.90;4.03;;;15.50;99.90;;;;;;4175666;28;20032;-61
2023/05/21 03:01:45;;;;;;;5.77;4.43;;;15.60;99.90;;;;;;4175791;28;20040;-61
2023/05/21 03:03:45;;;;;;;4.38;3.60;;;15.60;99.90;;;;;;4174621;28;20029;-60
2023/05/21 03:05:47;;;;;;;7.35;3.65;;;15.60;99.90;;;;;;4173337;28;20090;-61
2023/05/21 03:07:47;;;;;;;4.97;3.80;;;15.60;99.90;;;;;;4177337;28;20480;-60
2023/05/21 03:09:48;;;;;;;7.65;4.05;;;15.60;99.90;;;;;;4175401;28;20045;-61
2023/05/21 03:11:49;;;;;;;6.60;4.03;;;15.60;99.90;;;;;;4173378;28;20025;-60
2023/05/21 03:13:50;;;;;;;4.85;4.00;;;15.60;99.90;;;;;;4175836;28;20037;-61
2023/05/21 03:15:55;;;;;;;7.65;4.60;;;15.60;99.90;;;;;;4170826;28;20433;-61
2023/05/21 03:17:55;;;;;;;7.15;4.28;;;15.60;99.90;;;;;;4175631;28;20040;-60
2023/05/21 03:19:56;;;;;;;5.32;4.05;;;15.60;99.90;;;;;;4174221;28;20499;-61
2023/05/21 03:21:56;;;;;;;5.22;4.22;;;15.50;99.90;;;;;;4175188;28;20029;-61
2023/05/21 03:23:57;;;;;;;5.65;4.68;;;15.50;99.90;;;;;;4175716;28;20029;-60
2023/05/21 03:25:58;;;;;;;5.10;3.80;;;15.50;99.90;;;;;;4172303;28;20090;-61
2023/05/21 03:27:58;;;;;;;8.43;4.47;;;15.50;99.90;;;;;;4174738;28;20090;-61
2023/05/21 03:29:59;;;;;;;5.47;4.03;;;15.50;99.90;;;;;;4174958;28;20076;-61
2023/05/21 03:32:00;;;;;;;5.38;4.35;;;15.50;99.90;;;;;;4173114;28;20041;-61
2023/05/21 03:34:01;;;;;;;6.03;4.13;;;15.50;99.90;;;;;;4176535;28;20082;-61
2023/05/21 03:36:01;;;;;;;6.65;4.90;;;15.40;99.90;;;;;;4173027;28;20554;-61
2023/05/21 03:38:02;;;;;;;6.47;4.55;;;15.40;99.90;;;;;;4175579;28;20055;-61
2023/05/21 03:40:03;;;;;;;7.28;4.57;;;15.40;99.90;;;;;;4175943;28;20037;-63
2023/05/21 03:42:04;;;;;;;8.88;4.70;;;15.30;99.90;;;;;;4173495;28;20036;-61
2023/05/21 03:44:05;;;;;;;6.22;4.95;;;15.40;99.90;;;;;;4171715;28;20037;-61
2023/05/21 03:46:05;;;;;;;5.10;4.10;;;15.40;99.90;;;;;;4172929;28;20057;-62
2023/05/21 03:48:06;;;;;;;6.97;4.55;;;15.40;99.90;;;;;;4171593;28;20583;-61
2023/05/21 03:50:08;;;;;;;5.75;4.38;;;15.40;99.90;;;;;;4173740;28;20029;-63
2023/05/21 03:52:08;;;;;;;6.63;4.50;;;15.40;99.90;;;;;;4175888;28;20047;-61
2023/05/21 03:54:09;;;;;;;8.65;4.60;;;15.40;99.90;;;;;;4173473;28;20642;-61
2023/05/21 03:56:09;;;;;;;6.20;4.55;;;15.40;99.90;;;;;;4171480;28;20033;-60
2023/05/21 03:58:10;;;;;;;6.75;4.70;;;15.40;99.90;;;;;;4174871;28;20060;-61
2023/05/21 04:00:11;;;;;;;6.15;4.18;;;15.40;99.90;;;;;;4169727;28;20053;-61
2023/05/21 04:02:11;;;;;;;6.18;4.30;;;15.40;99.90;;;;;;4177436;28;20112;-60
2023/05/21 04:04:12;;;;;;;5.15;4.30;;;15.40;99.90;;;;;;4173835;28;20496;-61
2023/05/21 04:06:13;;;;;;;6.88;4.70;;;15.40;99.90;;;;;;4174100;28;20033;-61
2023/05/21 04:08:13;;;;;;;8.55;4.55;;;15.30;99.90;;;;;;4172143;28;20051;-61
2023/05/21 04:10:14;;;;;;;5.20;3.80;;;15.30;99.90;;;;;;4174770;28;20045;-61
2023/05/21 04:12:16;;;;;;;5.22;3.88;;;15.30;99.90;;;;;;4171633;28;20038;-61
2023/05/21 04:14:17;;;;;;;6.95;4.25;;;15.30;99.90;;;;;;4174135;28;20044;-60
2023/05/21 04:16:17;;;;;;;7.55;4.70;;;15.30;99.90;;;;;;4174966;28;20029;-61
2023/05/21 04:18:19;;;;;;;6.13;4.25;;;15.30;99.90;;;;;;4175744;28;20057;-60
2023/05/21 04:20:20;;;;;;;4.95;3.90;;;15.40;99.90;;;;;;4174187;28;20037;-61
2023/05/21 04:22:22;;;;;;;5.05;3.85;;;15.30;99.90;;;;;;4172573;28;20060;-61
2023/05/21 04:24:23;;;;;;;6.32;4.00;;;15.30;99.90;;;;;;4175578;28;20033;-61
2023/05/21 04:26:24;;;;;;;5.90;4.25;;;15.20;99.90;;;;;;4173336;28;20037;-61
2023/05/21 04:28:27;;;;;;;5.93;4.28;;;15.20;99.90;;;;;;4176215;28;21726;-61
2023/05/21 04:30:28;;;;;;;4.95;4.00;;;15.30;99.90;;;;;;4172463;28;20033;-61
2023/05/21 04:32:30;;;;;;;6.53;3.83;;;15.30;99.90;;;;;;4177180;28;20029;-60
2023/05/21 04:34:32;;;;;;;4.78;3.30;;;15.30;99.90;;;;;;4173528;28;20079;-62
2023/05/21 04:36:33;;;;;;;5.05;3.83;;;15.30;99.90;;;;;;4172782;28;20516;-60
2023/05/21 04:38:35;;;;;;;4.90;3.63;;;15.30;99.90;;;;;;4175279;28;20086;-61
2023/05/21 04:40:36;;;;;;;4.93;3.88;;;15.30;99.90;;;;;;4172058;28;20056;-61
2023/05/21 04:42:37;;;;;;;5.03;3.58;;;15.40;99.90;;;;;;4174542;28;20033;-61
2023/05/21 04:44:39;;;;;;;6.03;3.90;;;15.40;99.90;;;;;;4172948;28;20522;-61
2023/05/21 04:46:39;;;;;;;4.95;3.38;;;15.40;99.90;;;;;;4171952;28;20037;-60
2023/05/21 04:48:41;;;;;;;5.93;3.85;;;15.40;99.90;;;;;;4174324;28;20455;-61
2023/05/21 04:50:42;;;;;;;6.47;3.75;;;15.50;99.90;;;;;;4169099;28;20477;-61
2023/05/21 04:52:44;;;;;;;5.63;4.05;;;15.50;99.90;;;;;;4172600;28;20033;-61
2023/05/21 04:54:46;;;;;;;4.60;3.80;;;15.50;99.90;;;;;;4173906;28;20403;-61
2023/05/21 04:56:47;;;;;;;6.22;3.90;;;15.50;99.90;;;;;;4169105;28;20056;-61
2023/05/21 04:58:48;;;;;;;5.22;3.70;;;15.50;99.90;;;;;;4173997;28;20025;-61
2023/05/21 05:00:50;;;;;;;5.65;4.22;;;15.50;99.90;;;;;;4173442;28;20044;-61
2023/05/21 05:02:51;;;;;;;6.22;4.03;;;15.60;99.90;;;;;;4173942;28;20110;-61
2023/05/21 05:04:51;;;;;;;5.07;3.83;;;15.60;99.90;;;;;;4172903;28;20045;-60
2023/05/21 05:06:52;;;;;;;5.20;3.78;;;15.60;99.90;;;;;;4173575;28;20029;-61
2023/05/21 05:08:52;;;;;;;5.35;3.80;;;15.60;99.90;;;;;;4173309;28;20484;-61
2023/05/21 05:10:53;;;;;;;5.95;4.03;;;15.60;99.90;;;;;;4169000;28;20451;-61
2023/05/21 05:12:53;;;;;;;4.90;3.60;;;15.60;99.90;;;;;;4172379;28;20037;-61
2023/05/21 05:14:54;;;;;;;6.22;4.55;;;15.60;99.90;;;;;;4175259;28;20457;-61
2023/05/21 05:16:58;;;;;;;5.90;4.32;;;15.50;99.90;;;;;;4169822;28;20041;-61
2023/05/21 05:18:59;;;;;;;5.68;3.97;;;15.50;99.90;;;;;;4167964;28;20056;-61
2023/05/21 05:21:00;;;;;;;7.13;4.50;;;15.50;99.90;;;;;;4169127;28;20025;-63
2023/05/21 05:23:01;;;;;;;6.15;4.05;;;15.50;99.90;;;;;;4166748;28;20484;-63
2023/05/21 05:25:01;;;;;;;6.32;4.50;;;15.50;99.90;;;;;;4173988;28;20021;-65
2023/05/21 05:27:02;;;;;;;4.95;3.72;;;15.40;99.90;;;;;;4169716;28;20044;-64
2023/05/21 05:29:02;;;;;;;8.02;4.35;;;15.40;99.90;;;;;;4172933;28;20391;-64
2023/05/21 05:31:03;;;;;;;6.18;4.28;;;15.50;99.90;;;;;;4170235;28;20056;-64
2023/05/21 05:33:04;;;;;;;6.13;4.07;;;15.50;99.90;;;;;;4173576;28;20021;-64
2023/05/21 05:35:05;;;;;;;8.00;4.55;;;15.50;99.90;;;;;;4171908;28;20025;-65
2023/05/21 05:37:06;;;;;;;8.07;4.55;;;15.60;99.90;;;;;;4171836;28;21446;-64
2023/05/21 05:39:07;;;;;;;4.80;4.10;;;15.60;99.90;;;;;;4172717;28;20116;-65
2023/05/21 05:41:08;;;;;;;6.57;4.25;;;15.60;99.90;;;;;;4168335;28;20041;-64
2023/05/21 05:43:08;;;;;;;7.38;4.80;;;15.70;99.90;;;;;;4176208;28;20044;-64
2023/05/21 05:45:10;;;;;;;5.50;4.22;;;15.70;99.90;;;;;;4172749;28;20025;-64
2023/05/21 05:47:10;;;;;;;7.47;4.05;;;15.60;99.90;;;;;;4176658;28;20078;-64
2023/05/21 05:49:12;;;;;;;6.10;4.25;;;15.70;99.90;;;;;;4173458;28;20045;-64
2023/05/21 05:51:14;;;;;;;6.30;4.35;;;15.70;99.90;;;;;;4173188;28;20484;-64
2023/05/21 05:53:14;;;;;;;5.68;4.15;;;15.80;99.90;;;;;;4171894;28;20033;-64
2023/05/21 05:55:15;;;;;;;6.20;4.53;;;15.80;99.90;;;;;;4172915;28;20048;-65
2023/05/21 05:57:16;;;;;;;6.63;4.35;;;15.80;99.90;;;;;;4171417;28;20037;-64
2023/05/21 05:59:16;;;;;;;5.20;4.28;;;15.70;99.90;;;;;;4170390;28;20109;-65
2023/05/21 06:01:18;;;;;;;6.53;4.50;;;15.70;99.90;;;;;;4170191;28;20053;-64
2023/05/21 06:03:18;;;;;;;6.82;4.72;;;15.80;99.90;;;;;;4166860;28;20048;-64
2023/05/21 06:05:19;;;;;;;6.15;4.78;;;15.80;99.90;;;;;;4171746;28;20555;-64
2023/05/21 06:07:19;;;;;;;7.50;4.80;;;15.80;99.90;;;;;;4172537;28;20029;-64
2023/05/21 06:09:20;;;;;;;6.00;3.72;;;15.80;99.90;;;;;;4175155;28;20090;-64
2023/05/21 06:11:21;;;;;;;7.03;4.80;;;15.70;99.90;;;;;;4173641;28;20083;-64
2023/05/21 06:13:22;;;;;;;5.75;4.40;;;15.80;99.90;;;;;;4170714;28;20068;-64
2023/05/21 06:15:22;;;;;;;6.65;4.85;;;15.80;99.90;;;;;;4170656;28;20108;-64
2023/05/21 06:17:23;;;;;;;5.53;4.30;;;15.80;99.90;;;;;;4172553;28;20029;-64
2023/05/21 06:19:23;;;;;;;7.72;5.40;;;15.90;99.90;;;;;;4172427;28;20056;-64
2023/05/21 06:21:24;;;;;;;6.97;4.95;;;15.80;99.90;;;;;;4168800;28;20041;-64
2023/05/21 06:23:24;;;;;;;6.38;4.85;;;16.00;99.90;;;;;;4166395;28;20046;-64
2023/05/21 06:25:25;;;;;;;6.07;4.50;;;16.00;99.90;;;;;;4169695;28;21216;-64
2023/05/21 06:27:26;;;;;;;6.03;4.40;;;16.20;99.90;;;;;;4174145;28;20033;-64
2023/05/21 06:29:26;;;;;;;5.68;4.75;;;16.20;99.90;;;;;;4172043;28;20033;-64
2023/05/21 06:31:27;;;;;;;6.35;5.00;;;16.30;99.90;;;;;;4170729;28;20040;-64
2023/05/21 06:33:28;;;;;;;7.70;4.75;;;16.40;99.90;;;;;;4170410;28;20094;-64
2023/05/21 06:35:28;;;;;;;5.20;4.45;;;16.60;99.90;;;;;;4171181;28;20535;-64
2023/05/21 06:37:29;;;;;;;7.07;5.20;;;16.60;99.90;;;;;;4173565;28;20037;-64
2023/05/21 06:39:29;;;;;;;6.68;5.13;;;16.80;99.90;;;;;;4173731;28;20083;-64
2023/05/21 06:41:30;;;;;;;7.07;4.70;;;16.80;99.90;;;;;;4172183;28;20029;-64
2023/05/21 06:43:31;;;;;;;5.47;4.53;;;16.90;99.90;;;;;;4173981;28;20025;-64
2023/05/21 06:45:31;;;;;;;6.43;4.75;;;17.00;99.90;;;;;;4173781;28;20289;-64
2023/05/21 06:47:32;;;;;;;8.32;5.13;;;17.10;99.90;;;;;;4172369;28;20029;-64
2023/05/21 06:49:33;;;;;;;6.47;4.55;;;17.10;99.90;;;;;;4173080;28;20484;-64
2023/05/21 06:51:34;;;;;;;9.77;4.70;;;17.30;99.90;;;;;;4170235;28;20022;-64
2023/05/21 06:53:34;;;;;;;5.90;4.88;;;17.40;99.90;;;;;;4172507;28;20360;-64
2023/05/21 06:55:35;;;;;;;8.27;5.43;;;17.40;99.90;;;;;;4173004;28;20112;-64
2023/05/21 06:57:37;;;;;;;8.32;5.43;;;17.30;99.90;;;;;;4173247;28;20067;-65
2023/05/21 06:59:38;;;;;;;6.72;5.15;;;17.40;99.90;;;;;;4172215;28;20037;-64
2023/05/21 07:01:41;;;;;;;6.88;5.32;;;17.40;99.90;;;;;;4171741;28;20040;-65
2023/05/21 07:03:41;;;;;;;7.13;5.50;;;17.40;99.90;;;;;;4174635;28;20029;-64
2023/05/21 07:05:42;;;;;;;7.53;5.15;;;17.40;99.90;;;;;;4175880;28;20025;-65
2023/05/21 07:07:43;;;;;;;6.70;4.45;;;17.50;99.90;;;;;;4175427;28;20044;-65
2023/05/21 07:09:43;;;;;;;6.60;5.20;;;17.60;99.90;;;;;;4176857;28;20078;-65
2023/05/21 07:11:44;;;;;;;6.72;4.63;;;17.70;99.90;;;;;;4175471;28;20036;-65
2023/05/21 07:13:44;;;;;;;6.85;4.57;;;17.70;99.90;;;;;;4177073;28;20017;-64
2023/05/21 07:15:45;;;;;;;5.97;4.60;;;17.80;99.90;;;;;;4174616;28;20041;-64
2023/05/21 07:17:46;;;;;;;6.68;5.10;;;17.90;99.90;;;;;;4173055;28;20746;-65
2023/05/21 07:19:46;;;;;;;7.70;4.97;;;18.00;99.90;;;;;;4174704;28;20369;-64
2023/05/21 07:21:47;;;;;;;5.45;4.60;;;18.00;99.90;;;;;;4166410;28;20344;-64
2023/05/21 07:23:48;;;;;;;5.88;4.65;;;18.10;99.90;;;;;;4172704;28;20037;-64
2023/05/21 07:25:49;;;;;;;6.00;4.53;;;18.20;99.90;;;;;;4171292;28;20037;-64
2023/05/21 07:27:49;;;;;;;7.07;5.03;;;18.30;99.90;;;;;;4170638;28;20033;-64
2023/05/21 07:29:50;;;;;;;6.00;4.85;;;18.40;99.90;;;;;;4171058;28;20376;-64
2023/05/21 07:31:50;;;;;;;5.85;4.93;;;18.50;99.90;;;;;;4168770;28;20025;-65
2023/05/21 07:33:51;;;;;;;7.95;4.78;;;18.50;99.90;;;;;;4175973;28;20031;-64
2023/05/21 07:35:52;;;;;;;7.55;5.30;;;18.50;99.90;;;;;;4173358;28;20033;-65
2023/05/21 07:37:52;;;;;;;6.50;4.90;;;18.60;99.90;;;;;;4172522;28;20041;-65
2023/05/21 07:39:57;;;;;;;8.15;5.55;;;18.60;99.90;;;;;;4170362;28;20060;-64
2023/05/21 07:41:58;;;;;;;7.47;5.20;;;18.60;99.90;;;;;;4173671;28;21467;-64
2023/05/21 07:44:00;;;;;;;7.43;5.30;;;18.70;99.90;;;;;;4171378;28;20045;-64
2023/05/21 07:46:01;;;;;;;6.70;4.93;;;18.70;99.90;;;;;;4167987;28;20100;-64
2023/05/21 07:48:01;;;;;;;6.50;5.18;;;18.60;99.90;;;;;;4173777;28;20076;-64
2023/05/21 07:50:02;;;;;;;5.85;5.00;;;18.60;99.90;;;;;;4173802;28;20037;-66
2023/05/21 07:52:03;;;;;;;5.43;4.43;;;18.70;99.90;;;;;;4170441;28;20120;-64
2023/05/21 07:54:04;;;;;;;7.22;5.53;;;18.70;99.90;;;;;;4171453;28;20434;-65
2023/05/21 07:56:05;;;;;;;7.30;5.18;;;18.60;99.90;;;;;;4173705;28;20048;-65
2023/05/21 07:58:06;;;;;;;6.82;5.20;;;18.70;99.90;;;;;;4172441;28;20037;-66
2023/05/21 08:00:12;;;;;;;8.32;5.85;;;18.70;99.90;;;;;;4170955;28;20044;-65
2023/05/21 08:02:13;;;;;;;6.78;5.32;;;18.80;99.90;;;;;;4170688;28;20083;-65
2023/05/21 08:04:14;;;;;;;5.47;4.72;;;18.90;99.90;;;;;;4175852;28;20422;-65
2023/05/21 08:06:14;;;;;;;8.48;5.65;;;18.90;99.90;;;;;;4166583;28;20555;-64
2023/05/21 08:08:18;;;;;;;6.20;5.15;;;18.80;99.90;;;;;;4170518;28;20099;-65
2023/05/21 08:10:19;;;;;;;8.52;6.10;;;18.80;99.90;;;;;;4170216;28;20086;-65
2023/05/21 08:12:19;;;;;;;6.90;5.72;;;18.90;99.90;;;;;;4168267;28;20041;-64
2023/05/21 08:14:20;;;;;;;8.15;5.65;;;18.90;99.90;;;;;;4171129;28;20064;-65
2023/05/21 08:16:22;;;;;;;8.85;6.40;;;18.90;99.90;;;;;;4169159;28;20038;-65
2023/05/21 08:18:24;;;;;;;8.70;5.73;;;18.80;99.90;;;;;;4173965;28;20124;-64
2023/05/21 08:20:25;;;;;;;6.80;5.63;;;18.80;99.90;;;;;;4182416;28;20060;-65
2023/05/21 08:22:25;;;;;;;7.57;5.55;;;18.90;99.90;;;;;;4168287;28;20408;-64
2023/05/21 08:24:26;;;;;;;9.48;5.43;;;19.00;99.90;;;;;;4174913;28;20040;-65
2023/05/21 08:26:26;;;;;;;8.90;5.93;;;19.00;99.90;;;;;;4166281;28;20384;-65
2023/05/21 08:28:27;;;;;;;7.55;5.25;;;19.00;99.90;;;;;;4171356;28;20041;-65
2023/05/21 08:30:28;;;;;;;9.63;6.90;;;19.00;99.90;;;;;;4170509;28;20060;-64
2023/05/21 08:32:28;;;;;;;8.15;5.88;;;19.00;99.90;;;;;;4175647;28;20036;-65
2023/05/21 08:34:30;;;;;;;7.22;5.60;;;19.00;99.90;;;;;;4174096;28;20408;-65
2023/05/21 08:36:31;;;;;;;8.15;6.20;;;19.10;99.90;;;;;;4171673;28;20418;-65
2023/05/21 08:38:31;;;;;;;8.52;6.20;;;19.10;99.90;;;;;;4172755;28;20111;-65
2023/05/21 08:40:33;;;;;;;9.95;5.93;;;19.10;99.90;;;;;;4165239;28;20044;-65
2023/05/21 08:42:48;;;;;;;7.85;6.05;;;19.00;99.90;;;;;;4172286;28;20520;-65
2023/05/21 08:44:51;;;;;;;8.95;6.38;;;19.00;99.90;;;;;;4173387;28;20392;-65
2023/05/21 08:46:55;;;;;;;7.82;5.90;;;19.00;99.90;;;;;;4171735;28;20083;-65
2023/05/21 08:48:56;;;;;;;9.50;7.05;;;19.10;99.90;;;;;;4172249;28;20041;-65
2023/05/21 08:50:59;;;;;;;9.05;6.07;;;19.00;99.90;;;;;;4176201;28;20112;-65
2023/05/21 08:53:00;;;;;;;9.13;7.03;;;19.00;99.90;;;;;;4175679;28;20687;-65
2023/05/21 08:55:03;;;;;;;10.68;6.35;;;18.90;99.90;;;;;;4173535;28;20370;-65
2023/05/21 08:57:04;;;;;;;10.60;7.88;;;18.90;99.90;;;;;;4171858;28;20036;-65
2023/05/21 08:59:06;;;;;;;10.93;7.75;;;18.90;99.90;;;;;;4173373;28;20075;-65
2023/05/21 09:01:06;;;;;;;9.23;7.05;;;18.90;99.90;;;;;;4173522;28;20037;-65
2023/05/21 09:03:11;;;;;;;7.93;6.05;;;18.90;99.90;;;;;;4176390;28;20056;-66
2023/05/21 09:05:13;;;;;;;9.23;6.68;;;18.90;99.90;;;;;;4173460;28;20029;-65
2023/05/21 09:07:14;;;;;;;9.43;6.25;;;19.00;99.90;;;;;;4173924;28;20041;-65
2023/05/21 09:09:25;;;;;;;8.00;5.90;;;19.10;99.90;;;;;;4173796;28;21718;-65
2023/05/21 09:11:26;;;;;;;8.93;7.10;;;19.20;99.90;;;;;;4170651;28;20376;-65
2023/05/21 09:13:27;;;;;;;9.85;7.10;;;19.20;99.90;;;;;;4173946;28;20039;-65
2023/05/21 09:15:29;;;;;;;8.05;6.47;;;19.10;99.90;;;;;;4170123;28;20078;-65
2023/05/21 09:17:29;;;;;;;10.05;6.20;;;19.10;99.90;;;;;;4175430;28;20095;-65
2023/05/21 09:19:30;;;;;;;8.63;6.40;;;19.10;99.90;;;;;;4171165;28;20041;-65
2023/05/21 09:21:32;;;;;;;7.43;5.70;;;19.20;99.90;;;;;;4173552;28;20025;-65
2023/05/21 09:23:32;;;;;;;8.82;6.32;;;19.30;99.90;;;;;;4173494;28;20037;-65
2023/05/21 09:25:37;;;;;;;8.73;6.53;;;19.40;99.90;;;;;;4168710;28;20033;-65
2023/05/21 09:27:38;;;;;;;7.65;6.05;;;19.40;99.90;;;;;;4171843;28;20040;-65
2023/05/21 09:29:41;;;;;;;8.68;6.35;;;19.50;99.90;;;;;;4174379;28;20029;-65
2023/05/21 09:31:45;;;;;;;10.55;7.05;;;19.60;99.90;;;;;;4171026;28;20399;-66
2023/05/21 09:33:49;;;;;;;9.52;6.30;;;19.70;99.90;;;;;;4177190;28;20029;-65
2023/05/21 09:35:50;;;;;;;8.98;6.03;;;19.70;99.90;;;;;;4175615;28;20100;-65
2023/05/21 09:37:52;;;;;;;7.70;5.65;;;19.70;99.90;;;;;;4175813;28;20032;-65
2023/05/21 09:39:52;;;;;;;9.90;6.22;;;19.70;99.90;;;;;;4172170;28;20121;-65
2023/05/21 09:41:56;;;;;;;8.73;6.38;;;19.70;99.90;;;;;;4175716;28;20424;-65
2023/05/21 09:44:03;;;;;;;7.68;5.40;;;19.80;99.90;;;;;;4175334;28;20036;-65
2023/05/21 09:46:03;;;;;;;8.90;7.07;;;19.90;99.90;;;;;;4174278;28;20171;-65
2023/05/21 09:48:04;;;;;;;9.02;6.22;;;19.90;99.90;;;;;;4174738;28;20090;-65
2023/05/21 09:50:06;;;;;;;8.80;6.55;;;20.00;99.90;;;;;;4173023;28;20499;-66
2023/05/21 09:52:06;;;;;;;9.48;6.72;;;20.10;99.90;;;;;;4171379;28;20435;-65
2023/05/21 09:54:10;;;;;;;9.27;6.80;;;20.20;99.90;;;;;;4172616;28;20052;-65
2023/05/21 09:56:10;;;;;;;9.45;6.53;;;20.30;99.90;;;;;;4172741;28;20049;-66
2023/05/21 09:58:11;;;;;;;9.25;6.43;;;20.40;99.90;;;;;;4175074;28;20066;-65
2023/05/21 10:00:21;;;;;;;11.50;7.68;;;20.50;99.90;;;;;;4174521;28;20029;-65
2023/05/21 10:02:23;;;;;;;12.48;8.43;;;20.50;99.90;;;;;;4175399;28;20492;-65
2023/05/21 10:04:24;;;;;;;12.40;8.20;;;20.40;99.90;;;;;;4175874;28;20033;-65
2023/05/21 10:06:32;;;;;;;8.32;7.40;;;20.40;99.90;;;;;;4174704;28;20043;-65
2023/05/21 10:08:35;;;;;;;8.25;6.22;;;20.30;99.90;;;;;;4174597;28;20136;-65
2023/05/21 10:10:39;;;;;;;9.10;6.97;;;20.40;99.90;;;;;;4163368;28;20064;-65
2023/05/21 10:12:45;;;;;;;8.43;6.78;;;20.50;99.90;;;;;;4168571;28;20097;-68
2023/05/21 10:14:52;;;;;;;9.27;6.65;;;20.60;99.90;;;;;;4174034;28;20029;-65
2023/05/21 10:16:54;;;;;;;10.45;7.38;;;20.80;99.90;;;;;;4173065;28;20476;-65
2023/05/21 10:18:56;;;;;;;7.80;5.82;;;20.90;99.90;;;;;;4175582;28;20045;-65
2023/05/21 10:20:59;;;;;;;10.15;7.13;;;21.00;99.90;;;;;;4173383;28;20040;-65
2023/05/21 10:23:01;;;;;;;10.52;7.28;;;20.90;99.90;;;;;;4174972;28;20488;-65
2023/05/21 10:25:04;;;;;;;9.13;6.95;;;21.00;99.90;;;;;;4174363;28;20033;-67
2023/05/21 10:27:06;;;;;;;9.27;7.00;;;21.00;99.90;;;;;;4173952;28;20131;-65
2023/05/21 10:29:07;;;;;;;10.77;7.80;;;20.90;99.90;;;;;;4173976;28;20041;-65
2023/05/21 10:31:08;;;;;;;7.85;6.20;;;20.80;99.90;;;;;;4172644;28;20040;-65